createdAt,value
2022-10-17T00:05:41.053Z,4.06
2022-10-17T00:07:42.144Z,4.06
2022-10-17T00:09:43.526Z,4.06
2022-10-17T00:11:44.913Z,4.06
2022-10-17T00:15:46.965Z,4.06
2022-10-17T00:17:48.022Z,4.06
2022-10-17T00:19:49.650Z,4.06
2022-10-17T00:21:51.271Z,4.06
2022-10-17T00:23:52.584Z,4.06
2022-10-17T00:25:53.523Z,4.06
2022-10-17T00:27:54.567Z,4.06
2022-10-17T00:31:57.650Z,4.06
2022-10-17T00:33:59.358Z,4.06
2022-10-17T00:36:00.902Z,4.06
2022-10-17T00:38:02.141Z,4.06
2022-10-17T00:40:03.206Z,4.06
2022-10-17T00:42:04.944Z,4.06
2022-10-17T00:44:06.468Z,4.06
2022-10-17T00:46:07.405Z,4.06
2022-10-17T00:48:08.542Z,4.06
2022-10-17T00:50:09.871Z,4.06
2022-10-17T00:52:11.199Z,4.06
2022-10-17T00:54:12.417Z,4.06
2022-10-17T00:58:15.813Z,4.06
2022-10-17T01:00:16.843Z,4.06
2022-10-17T01:02:18.165Z,4.06
2022-10-17T01:04:19.944Z,4.05
2022-10-17T01:06:21.083Z,4.06
2022-10-17T01:08:22.117Z,4.06
2022-10-17T01:14:25.958Z,4.05
2022-10-17T01:16:27.412Z,4.06
2022-10-17T01:18:29.012Z,4.05
2022-10-17T01:20:29.960Z,4.06
2022-10-17T01:22:31.495Z,4.06
2022-10-17T01:24:32.409Z,4.05
2022-10-17T01:26:33.962Z,4.05
2022-10-17T01:30:36.491Z,4.05
2022-10-17T01:32:37.869Z,4.05
2022-10-17T01:34:39.532Z,4.05
2022-10-17T01:36:40.483Z,4.05
2022-10-17T01:40:43.303Z,4.05
2022-10-17T01:42:44.561Z,4.05
2022-10-17T01:44:45.533Z,4.05
2022-10-17T01:46:47.168Z,4.05
2022-10-17T01:48:48.921Z,4.05
2022-10-17T01:50:50.334Z,4.05
2022-10-17T01:52:51.337Z,4.05
2022-10-17T01:56:54.179Z,4.05
2022-10-17T01:58:55.382Z,4.05
2022-10-17T02:02:58.131Z,4.04
2022-10-17T02:04:59.150Z,4.04
2022-10-17T02:07:00.959Z,4.05
2022-10-17T02:09:02.601Z,4.04
2022-10-17T02:13:05.005Z,4.05
2022-10-17T02:15:06.882Z,4.04
2022-10-17T02:17:08.235Z,4.04
2022-10-17T02:19:09.794Z,4.04
2022-10-17T02:23:12.755Z,4.04
2022-10-17T02:25:13.795Z,4.04
2022-10-17T02:27:15.399Z,4.04
2022-10-17T02:29:17.263Z,4.04
2022-10-17T02:31:19.037Z,4.04
2022-10-17T02:33:20.889Z,4.04
2022-10-17T02:35:22.303Z,4.04
2022-10-17T02:39:25.111Z,4.04
2022-10-17T02:41:26.444Z,4.04
2022-10-17T02:43:27.618Z,4.04
2022-10-17T02:45:29.089Z,4.04
2022-10-17T02:47:30.728Z,4.04
2022-10-17T02:49:32.333Z,4.04
2022-10-17T02:51:33.375Z,4.04
2022-10-17T02:55:36.460Z,4.04
2022-10-17T02:57:37.617Z,4.04
2022-10-17T02:59:39.145Z,4.04
2022-10-17T03:01:40.525Z,4.04
2022-10-17T03:03:41.710Z,4.04
2022-10-17T03:05:43.514Z,4.04
2022-10-17T03:07:44.798Z,4.04
2022-10-17T03:11:47.713Z,4.04
2022-10-17T03:13:49.338Z,4.04
2022-10-17T03:15:50.580Z,4.04
2022-10-17T03:17:52.287Z,4.04
2022-10-17T03:21:54.978Z,4.03
2022-10-17T03:23:56.277Z,4.03
2022-10-17T03:25:57.316Z,4.03
2022-10-17T03:27:59.037Z,4.04
2022-10-17T03:30:00.310Z,4.03
2022-10-17T03:32:01.821Z,4.03
2022-10-17T03:34:02.873Z,4.04
2022-10-17T03:38:05.388Z,4.03
2022-10-17T03:40:07.057Z,4.03
2022-10-17T03:42:08.740Z,4.03
2022-10-17T03:44:10.640Z,4.03
2022-10-17T03:46:11.943Z,4.03
2022-10-17T03:48:12.980Z,4.03
2022-10-17T03:50:14.053Z,4.03
2022-10-17T03:54:16.624Z,4.03
2022-10-17T03:56:18.217Z,4.03
2022-10-17T03:58:19.225Z,4.03
2022-10-17T04:00:20.475Z,4.03
2022-10-17T04:04:23.053Z,4.03
2022-10-17T04:06:24.922Z,4.03
2022-10-17T04:10:27.174Z,4.03
2022-10-17T04:12:28.780Z,4.03
2022-10-17T04:14:29.692Z,4.03
2022-10-17T04:16:30.593Z,4.03
2022-10-17T04:20:33.883Z,4.02
2022-10-17T04:22:35.356Z,4.03
2022-10-17T04:26:37.826Z,4.03
2022-10-17T04:30:42.266Z,4.02
2022-10-17T04:32:42.693Z,4.03
2022-10-17T04:36:46.463Z,4.02
2022-10-17T04:38:47.774Z,4.02
2022-10-17T04:40:49.302Z,4.02
2022-10-17T04:42:50.378Z,4.02
2022-10-17T04:44:52.087Z,4.02
2022-10-17T04:46:53.488Z,4.02
2022-10-17T04:48:54.702Z,4.02
2022-10-17T04:50:55.884Z,4.02
2022-10-17T04:52:57.292Z,4.02
2022-10-17T04:56:59.506Z,4.02
2022-10-17T04:59:00.911Z,4.02
2022-10-17T05:01:02.480Z,4.02
2022-10-17T05:03:55.804Z,4.02
2022-10-17T05:05:57.397Z,4.02
2022-10-17T05:07:58.918Z,4.02
2022-10-17T05:09:59.983Z,4.02
2022-10-17T05:14:03.344Z,4.02
2022-10-17T05:16:05.180Z,4.02
2022-10-17T05:18:06.633Z,4.02
2022-10-17T05:20:08.182Z,4.02
2022-10-17T05:24:10.329Z,4.02
2022-10-17T05:26:11.919Z,4.02
2022-10-17T05:28:12.973Z,4.02
2022-10-17T05:30:14.187Z,4.02
2022-10-17T05:32:15.144Z,4.02
2022-10-17T05:34:16.827Z,4.01
2022-10-17T05:36:18.585Z,4.01
2022-10-17T05:40:22.248Z,4.01
2022-10-17T05:42:24.155Z,4.01
2022-10-17T05:44:25.081Z,4.01
2022-10-17T05:46:26.226Z,4.01
2022-10-17T05:48:28.112Z,4.01
2022-10-17T05:50:29.049Z,4.01
2022-10-17T05:56:32.895Z,4.01
2022-10-17T05:58:50.559Z,4.01
2022-10-17T06:00:35.810Z,4.01
2022-10-17T06:02:37.100Z,4.01
2022-10-17T06:06:40.139Z,4.01
2022-10-17T06:08:41.256Z,4.01
2022-10-17T06:10:42.308Z,4.01
2022-10-17T06:12:43.807Z,4.01
2022-10-17T06:14:44.773Z,4.01
2022-10-17T06:16:45.870Z,4.01
2022-10-17T06:22:49.870Z,4
2022-10-17T06:24:50.802Z,4
2022-10-17T06:26:52.472Z,4
2022-10-17T06:28:54.386Z,4.01
2022-10-17T06:30:55.951Z,4.02
2022-10-17T06:32:57.069Z,4.02
2022-10-17T06:34:58.917Z,4.02
2022-10-17T06:37:00.247Z,4.02
2022-10-17T06:39:02.153Z,4.03
2022-10-17T06:41:03.664Z,4.02
2022-10-17T06:43:05.440Z,4.03
2022-10-17T06:45:07.195Z,4.03
2022-10-17T06:47:08.609Z,4.03
2022-10-17T06:49:09.976Z,4.03
2022-10-17T06:51:11.711Z,4.03
2022-10-17T06:55:14.933Z,4.05
2022-10-17T06:57:16.140Z,4.05
2022-10-17T06:59:17.064Z,4.05
2022-10-17T07:01:18.101Z,4.06
2022-10-17T07:05:20.562Z,4.07
2022-10-17T07:07:22.330Z,4.08
2022-10-17T07:11:24.702Z,4.08
2022-10-17T07:13:26.229Z,4.09
2022-10-17T07:15:27.193Z,4.09
2022-10-17T07:17:28.946Z,4.09
2022-10-17T07:21:33.956Z,4.1
2022-10-17T07:23:32.073Z,4.1
2022-10-17T07:27:34.910Z,4.11
2022-10-17T07:29:35.812Z,4.12
2022-10-17T07:31:36.661Z,4.12
2022-10-17T07:33:37.618Z,4.12
2022-10-17T07:37:39.835Z,4.12
2022-10-17T07:39:41.192Z,4.13
2022-10-17T07:41:42.389Z,4.13
2022-10-17T07:43:43.888Z,4.14
2022-10-17T07:47:46.449Z,4.14
2022-10-17T07:49:48.223Z,4.14
2022-10-17T07:51:49.164Z,4.14
2022-10-17T07:53:50.628Z,4.15
2022-10-17T07:55:51.993Z,4.15
2022-10-17T07:59:54.669Z,4.15
2022-10-17T08:03:57.068Z,4.16
2022-10-17T08:05:58.135Z,4.16
2022-10-17T08:07:59.433Z,4.16
2022-10-17T08:10:00.720Z,4.16
2022-10-17T08:14:03.593Z,4.16
2022-10-17T08:16:05.087Z,4.17
2022-10-17T08:20:07.806Z,4.17
2022-10-17T08:22:08.731Z,4.17
2022-10-17T08:24:09.773Z,4.17
2022-10-17T08:26:10.978Z,4.17
2022-10-17T08:28:13.059Z,4.17
2022-10-17T08:30:15.301Z,4.18
2022-10-17T08:34:17.997Z,4.18
2022-10-17T08:36:19.032Z,4.18
2022-10-17T08:38:21.007Z,4.18
2022-10-17T08:40:21.906Z,4.18
2022-10-17T08:42:23.321Z,4.18
2022-10-17T08:46:27.582Z,4.19
2022-10-17T08:48:28.594Z,4.19
2022-10-17T08:52:31.892Z,4.19
2022-10-17T08:54:33.363Z,4.19
2022-10-17T08:56:47.783Z,4.19
2022-10-17T08:58:36.290Z,4.19
2022-10-17T09:00:37.173Z,4.19
2022-10-17T09:02:38.663Z,4.19
2022-10-17T09:06:40.700Z,4.19
2022-10-17T09:08:41.612Z,4.19
2022-10-17T09:10:42.834Z,4.2
2022-10-17T09:12:44.246Z,4.2
2022-10-17T09:14:45.668Z,4.2
2022-10-17T09:18:48.732Z,4.2
2022-10-17T09:20:50.337Z,4.2
2022-10-17T09:22:51.947Z,4.2
2022-10-17T09:24:53.327Z,4.2
2022-10-17T09:28:55.801Z,4.2
2022-10-17T09:30:56.824Z,4.2
2022-10-17T09:32:57.784Z,4.2
2022-10-17T09:34:58.665Z,4.2
2022-10-17T09:36:59.848Z,4.2
2022-10-17T09:39:01.276Z,4.2
2022-10-17T09:41:02.865Z,4.2
2022-10-17T09:45:04.498Z,4.2
2022-10-17T09:47:05.854Z,4.19
2022-10-17T09:51:15.013Z,4.19
2022-10-17T09:53:08.702Z,4.19
2022-10-17T09:55:10.334Z,4.19
2022-10-17T09:57:11.848Z,4.19
2022-10-17T09:59:13.850Z,4.19
2022-10-17T10:01:14.172Z,4.19
2022-10-17T10:03:15.403Z,4.19
2022-10-17T10:05:16.388Z,4.19
2022-10-17T10:09:18.424Z,4.19
2022-10-17T10:11:20.663Z,4.19
2022-10-17T10:13:22.142Z,4.19
2022-10-17T10:17:26.042Z,4.18
2022-10-17T10:19:27.634Z,4.19
2022-10-17T10:21:28.737Z,4.18
2022-10-17T10:23:30.900Z,4.19
2022-10-17T10:27:34.177Z,4.18
2022-10-17T10:29:35.698Z,4.18
2022-10-17T10:31:36.816Z,4.18
2022-10-17T10:33:41.430Z,4.18
2022-10-17T10:35:39.219Z,4.18
2022-10-17T10:37:40.051Z,4.18
2022-10-17T10:39:40.862Z,4.18
2022-10-17T10:43:43.447Z,4.18
2022-10-17T10:45:48.639Z,4.18
2022-10-17T10:47:46.734Z,4.18
2022-10-17T10:49:48.357Z,4.18
2022-10-17T10:51:49.289Z,4.17
2022-10-17T10:53:50.116Z,4.17
2022-10-17T10:55:51.842Z,4.17
2022-10-17T10:59:55.046Z,4.17
2022-10-17T11:01:56.464Z,4.17
2022-10-17T11:03:57.291Z,4.17
2022-10-17T11:05:58.829Z,4.17
2022-10-17T11:10:01.727Z,4.17
2022-10-17T11:12:02.943Z,4.17
2022-10-17T11:16:05.242Z,4.17
2022-10-17T11:18:06.609Z,4.17
2022-10-17T11:22:09.099Z,4.17
2022-10-17T11:26:11.296Z,4.17
2022-10-17T11:28:12.166Z,4.17
2022-10-17T11:30:20.794Z,4.17
2022-10-17T11:32:15.033Z,4.17
2022-10-17T11:34:16.269Z,4.17
2022-10-17T11:36:17.268Z,4.17
2022-10-17T11:38:18.782Z,4.17
2022-10-17T11:40:21.881Z,4.17
2022-10-17T11:42:21.389Z,4.17
2022-10-17T11:44:22.221Z,4.17
2022-10-17T11:46:23.287Z,4.17
2022-10-17T11:49:08.473Z,4.17
2022-10-17T11:53:11.289Z,4.17
2022-10-17T11:55:12.503Z,4.16
2022-10-17T11:57:14.898Z,4.16
2022-10-17T11:59:15.864Z,4.17
2022-10-17T12:03:18.140Z,4.17
2022-10-17T12:05:19.502Z,4.17
2022-10-17T12:07:20.516Z,4.16
2022-10-17T12:09:21.258Z,4.16
2022-10-17T12:11:22.447Z,4.16
2022-10-17T12:13:23.145Z,4.16
2022-10-17T12:15:24.355Z,4.16
2022-10-17T12:19:26.666Z,4.16
2022-10-17T12:21:31.186Z,4.16
2022-10-17T12:23:29.070Z,4.16
2022-10-17T12:25:31.591Z,4.16
2022-10-17T12:27:32.226Z,4.16
2022-10-17T12:29:32.890Z,4.16
2022-10-17T12:31:34.237Z,4.16
2022-10-17T12:35:35.869Z,4.16
2022-10-17T12:37:37.533Z,4.16
2022-10-17T12:39:38.603Z,4.16
2022-10-17T12:41:39.731Z,4.16
2022-10-17T12:43:44.001Z,4.16
2022-10-17T12:45:42.680Z,4.16
2022-10-17T12:47:44.139Z,4.16
2022-10-17T12:49:45.487Z,4.16
2022-10-17T12:51:46.646Z,4.16
2022-10-17T12:53:47.829Z,4.16
2022-10-17T12:55:48.918Z,4.16
2022-10-17T12:57:50.366Z,4.16
2022-10-17T12:59:51.846Z,4.16
2022-10-17T13:01:53.244Z,4.16
2022-10-17T13:03:54.396Z,4.16
2022-10-17T13:07:56.818Z,4.16
2022-10-17T13:09:57.652Z,4.16
2022-10-17T13:11:58.479Z,4.16
2022-10-17T13:13:59.900Z,4.16
2022-10-17T13:18:02.615Z,4.16
2022-10-17T13:20:04.383Z,4.15
2022-10-17T13:22:07.227Z,4.15
2022-10-17T13:24:06.741Z,4.16
2022-10-17T13:26:08.091Z,4.15
2022-10-17T13:28:09.713Z,4.15
2022-10-17T13:30:10.806Z,4.15
2022-10-17T13:34:14.045Z,4.15
2022-10-17T13:36:15.166Z,4.15
2022-10-17T13:40:31.085Z,4.15
2022-10-17T13:42:19.301Z,4.15
2022-10-17T13:44:20.793Z,4.15
2022-10-17T13:46:36.540Z,4.15
2022-10-17T13:50:39.917Z,4.15
2022-10-17T13:52:25.789Z,4.14
2022-10-17T13:54:27.315Z,4.15
2022-10-17T13:56:29.093Z,4.15
2022-10-17T13:58:29.192Z,4.15
2022-10-17T14:00:30.674Z,4.15
2022-10-17T14:02:31.809Z,4.15
2022-10-17T14:06:33.980Z,4.15
2022-10-17T14:08:35.501Z,4.14
2022-10-17T14:10:36.816Z,4.14
2022-10-17T14:12:37.882Z,4.14
2022-10-17T14:16:41.032Z,4.14
2022-10-17T14:18:42.508Z,4.14
2022-10-17T14:22:47.243Z,4.14
2022-10-17T14:24:46.379Z,4.14
2022-10-17T14:26:47.194Z,4.14
2022-10-17T14:28:48.752Z,4.14
2022-10-17T14:30:57.023Z,4.14
2022-10-17T14:32:51.377Z,4.14
2022-10-17T14:34:55.210Z,4.14
2022-10-17T14:38:56.337Z,4.17
2022-10-17T14:41:09.712Z,4.17
2022-10-17T14:42:58.975Z,4.17
2022-10-17T14:44:59.888Z,4.18
2022-10-17T14:49:02.399Z,4.18
2022-10-17T14:51:03.429Z,4.18
2022-10-17T14:53:05.092Z,4.19
2022-10-17T14:55:06.476Z,4.19
2022-10-17T14:59:12.008Z,4.19
2022-10-17T15:01:10.377Z,4.19
2022-10-17T15:03:11.738Z,4.19
2022-10-17T15:05:13.531Z,4.19
2022-10-17T15:07:14.826Z,4.19
2022-10-17T15:09:15.979Z,4.19
2022-10-17T15:11:16.909Z,4.19
2022-10-17T15:15:19.539Z,4.19
2022-10-17T15:17:21.016Z,4.19
2022-10-17T15:19:22.374Z,4.2
2022-10-17T15:21:26.579Z,4.19
2022-10-17T15:23:25.365Z,4.2
2022-10-17T15:27:28.053Z,4.18
2022-10-17T15:31:30.487Z,4.18
2022-10-17T15:33:31.933Z,4.18
2022-10-17T15:35:33.352Z,4.18
2022-10-17T15:37:35.049Z,4.2
2022-10-17T15:39:36.441Z,4.2
2022-10-17T15:41:37.473Z,4.2
2022-10-17T15:43:39.012Z,4.2
2022-10-17T15:47:41.723Z,4.2
2022-10-17T15:49:43.065Z,4.2
2022-10-17T15:51:44.169Z,4.2
2022-10-17T15:53:45.021Z,4.2
2022-10-17T15:57:47.408Z,4.19
2022-10-17T15:59:48.440Z,4.19
2022-10-17T16:01:49.608Z,4.19
2022-10-17T16:03:50.812Z,4.18
2022-10-17T16:05:52.323Z,4.19
2022-10-17T16:07:53.268Z,4.19
2022-10-17T16:09:54.708Z,4.19
2022-10-17T16:13:56.812Z,4.18
2022-10-17T16:15:58.524Z,4.19
2022-10-17T16:18:01.546Z,4.18
2022-10-17T16:20:01.415Z,4.18
2022-10-17T16:22:04.269Z,4.19
2022-10-17T16:26:05.269Z,4.18
2022-10-17T16:30:07.693Z,4.18
2022-10-17T16:32:09.367Z,4.18
2022-10-17T16:34:10.810Z,4.18
2022-10-17T16:36:12.522Z,4.18
2022-10-17T16:40:15.198Z,4.18
2022-10-17T16:42:16.825Z,4.18
2022-10-17T16:44:17.910Z,4.18
2022-10-17T16:46:19.026Z,4.18
2022-10-17T16:48:20.829Z,4.17
2022-10-17T16:50:22.273Z,4.18
2022-10-17T16:52:23.781Z,4.17
2022-10-17T16:56:25.551Z,4.17
2022-10-17T16:58:27.174Z,4.17
2022-10-17T17:02:30.471Z,4.17
2022-10-17T17:04:31.190Z,4.17
2022-10-17T17:06:32.496Z,4.17
2022-10-17T17:08:33.958Z,4.17
2022-10-17T17:12:37.176Z,4.17
2022-10-17T17:14:38.546Z,4.17
2022-10-17T17:16:39.779Z,4.17
2022-10-17T17:18:40.807Z,4.17
2022-10-17T17:20:42.494Z,4.17
2022-10-17T17:22:43.699Z,4.17
2022-10-17T17:24:45.071Z,4.17
2022-10-17T17:26:46.420Z,4.17
2022-10-17T17:28:47.679Z,4.17
2022-10-17T17:30:49.126Z,4.17
2022-10-17T17:32:50.935Z,4.17
2022-10-17T17:34:52.755Z,4.17
2022-10-17T17:38:55.159Z,4.17
2022-10-17T17:40:56.450Z,4.17
2022-10-17T17:42:57.578Z,4.17
2022-10-17T17:44:58.609Z,4.17
2022-10-17T17:46:59.553Z,4.17
2022-10-17T17:49:01.034Z,4.17
2022-10-17T17:51:02.369Z,4.16
2022-10-17T17:55:04.882Z,4.16
2022-10-17T17:57:05.864Z,4.16
2022-10-17T17:59:06.930Z,4.17
2022-10-17T18:01:08.270Z,4.16
2022-10-17T18:03:09.859Z,4.16
2022-10-17T18:05:10.923Z,4.16
2022-10-17T18:07:12.148Z,4.16
2022-10-17T18:11:15.978Z,4.16
2022-10-17T18:13:16.305Z,4.16
2022-10-17T18:15:18.043Z,4.16
2022-10-17T18:17:19.623Z,4.16
2022-10-17T18:21:22.288Z,4.16
2022-10-17T18:23:23.912Z,4.16
2022-10-17T18:27:26.745Z,4.16
2022-10-17T18:29:27.653Z,4.16
2022-10-17T18:31:28.830Z,4.16
2022-10-17T18:32:12.599Z,4.16
2022-10-17T18:34:14.238Z,4.16
2022-10-17T18:38:17.229Z,4.16
2022-10-17T18:40:18.939Z,4.16
2022-10-17T18:44:22.122Z,4.16
2022-10-17T18:48:24.341Z,4.16
2022-10-17T18:50:26.124Z,4.16
2022-10-17T18:52:27.732Z,4.16
2022-10-17T18:54:29.081Z,4.16
2022-10-17T18:58:31.696Z,4.16
2022-10-17T19:00:33.077Z,4.16
2022-10-17T19:04:35.720Z,4.15
2022-10-17T19:06:37.241Z,4.15
2022-10-17T19:08:38.948Z,4.15
2022-10-17T19:10:40.386Z,4.15
2022-10-17T19:14:43.573Z,4.16
2022-10-17T19:16:44.775Z,4.15
2022-10-17T19:18:46.413Z,4.15
2022-10-17T19:20:47.711Z,4.15
2022-10-17T19:22:49.042Z,4.15
2022-10-17T19:24:50.005Z,4.15
2022-10-17T19:26:51.089Z,4.15
2022-10-17T19:30:54.456Z,4.15
2022-10-17T19:32:56.288Z,4.15
2022-10-17T19:36:59.501Z,4.15
2022-10-17T19:39:00.951Z,4.15
2022-10-17T19:41:02.788Z,4.15
2022-10-17T19:43:04.424Z,4.15
2022-10-17T19:45:06.098Z,4.15
2022-10-17T19:47:07.707Z,4.14
2022-10-17T19:51:10.006Z,4.15
2022-10-17T19:53:11.389Z,4.15
2022-10-17T19:57:13.459Z,4.15
2022-10-17T19:59:14.433Z,4.15
2022-10-17T20:01:16.288Z,4.14
2022-10-17T20:03:17.159Z,4.14
2022-10-17T20:05:19.775Z,4.14
2022-10-17T20:07:20.038Z,4.15
2022-10-17T20:09:21.245Z,4.14
2022-10-17T20:13:23.887Z,4.14
2022-10-17T20:15:25.558Z,4.14
2022-10-17T20:17:27.387Z,4.14
2022-10-17T20:19:28.763Z,4.14
2022-10-17T20:21:30.027Z,4.14
2022-10-17T20:23:31.575Z,4.14
2022-10-17T20:25:33.127Z,4.14
2022-10-17T20:29:35.878Z,4.14
2022-10-17T20:31:36.984Z,4.14
2022-10-17T20:33:37.868Z,4.14
2022-10-17T20:35:39.656Z,4.14
2022-10-17T20:39:42.516Z,4.14
2022-10-17T20:41:43.842Z,4.14
2022-10-17T20:45:51.043Z,4.14
2022-10-17T20:47:49.257Z,4.14
2022-10-17T20:49:49.018Z,4.14
2022-10-17T20:51:50.112Z,4.14
2022-10-17T20:55:53.232Z,4.14
2022-10-17T20:57:54.745Z,4.14
2022-10-17T20:59:56.575Z,4.14
2022-10-17T21:01:58.425Z,4.13
2022-10-17T21:04:06.297Z,4.14
2022-10-17T21:08:02.293Z,4.13
2022-10-17T21:12:04.580Z,4.13
2022-10-17T21:14:05.610Z,4.14
2022-10-17T21:16:06.655Z,4.13
2022-10-17T21:18:08.094Z,4.13
2022-10-17T21:22:11.063Z,4.13
2022-10-17T21:24:12.092Z,4.13
2022-10-17T21:26:13.490Z,4.13
2022-10-17T21:28:15.041Z,4.13
2022-10-17T21:30:16.320Z,4.13
2022-10-17T21:32:25.088Z,4.13
2022-10-17T21:34:19.059Z,4.13
2022-10-17T21:38:21.750Z,4.13
2022-10-17T21:40:22.668Z,4.13
2022-10-17T21:42:24.132Z,4.13
2022-10-17T21:44:25.429Z,4.13
2022-10-17T21:46:26.725Z,4.13
2022-10-17T21:48:28.116Z,4.13
2022-10-17T21:50:29.597Z,4.12
2022-10-17T21:52:30.990Z,4.12
2022-10-17T21:54:32.175Z,4.13
2022-10-17T21:56:33.975Z,4.12
2022-10-17T21:58:35.018Z,4.13
2022-10-17T22:00:36.862Z,4.12
2022-10-17T22:02:38.110Z,4.12
2022-10-17T22:04:39.163Z,4.12
2022-10-17T22:06:41.209Z,4.12
2022-10-17T22:08:41.777Z,4.12
2022-10-17T22:10:42.698Z,4.12
2022-10-17T22:12:44.300Z,4.12
2022-10-17T22:14:45.609Z,4.12
2022-10-17T22:16:47.255Z,4.12
2022-10-17T22:20:50.460Z,4.12
2022-10-17T22:22:51.964Z,4.12
2022-10-17T22:24:53.739Z,4.12
2022-10-17T22:26:55.364Z,4.12
2022-10-17T22:28:56.932Z,4.12
2022-10-17T22:30:58.740Z,4.12
2022-10-17T22:33:00.653Z,4.12
2022-10-17T22:37:02.847Z,4.12
2022-10-17T22:39:04.299Z,4.12
2022-10-17T22:41:05.319Z,4.12
2022-10-17T22:43:06.284Z,4.12
2022-10-17T22:45:07.333Z,4.12
2022-10-17T22:47:08.812Z,4.12
2022-10-17T22:49:09.884Z,4.12
2022-10-17T22:53:11.834Z,4.12
2022-10-17T22:55:13.041Z,4.12
2022-10-17T22:57:14.853Z,4.12
2022-10-17T22:59:15.787Z,4.11
2022-10-17T23:03:18.796Z,4.12
2022-10-17T23:05:19.742Z,4.12
2022-10-17T23:07:20.673Z,4.11
2022-10-17T23:09:22.399Z,4.12
2022-10-17T23:11:23.890Z,4.12
2022-10-17T23:13:25.798Z,4.11
2022-10-17T23:15:27.321Z,4.11
2022-10-17T23:17:29.070Z,4.12
2022-10-17T23:19:30.258Z,4.11
2022-10-17T23:21:31.224Z,4.11
2022-10-17T23:25:34.492Z,4.11
2022-10-17T23:27:36.214Z,4.11
2022-10-17T23:29:37.931Z,4.11
2022-10-17T23:31:39.317Z,4.11
2022-10-17T23:35:42.296Z,4.11
2022-10-17T23:37:43.626Z,4.11
2022-10-17T23:39:45.495Z,4.11
2022-10-17T23:41:46.576Z,4.11
2022-10-17T23:45:49.741Z,4.11
2022-10-17T23:47:51.331Z,4.1
2022-10-17T23:49:52.489Z,4.11
2022-10-17T23:51:54.251Z,4.11
2022-10-17T23:53:55.746Z,4.11
2022-10-17T23:55:57.511Z,4.11
2022-10-17T23:57:59.057Z,4.11
